createdAt,value
2019-03-13T00:02:38.861Z,11.10
2019-03-13T00:05:10.436Z,11.10
2019-03-13T00:07:41.036Z,11.00
2019-03-13T00:10:12.489Z,11.00
2019-03-13T00:12:43.198Z,11.10
2019-03-13T00:15:14.273Z,11.00
2019-03-13T00:17:44.891Z,10.90
2019-03-13T00:20:15.530Z,10.70
2019-03-13T00:22:46.206Z,10.70
2019-03-13T00:25:16.786Z,10.50
2019-03-13T00:27:47.405Z,10.20
2019-03-13T00:30:18.029Z,9.80
2019-03-13T00:32:48.626Z,9.50
2019-03-13T00:35:19.253Z,9.30
2019-03-13T00:37:49.841Z,9.10
2019-03-13T00:40:20.388Z,9.10
2019-03-13T00:42:50.917Z,9.00
2019-03-13T00:45:21.549Z,8.90
2019-03-13T00:47:52.154Z,8.80
2019-03-13T00:50:25.037Z,8.70
2019-03-13T00:52:55.649Z,8.60
2019-03-13T00:55:26.273Z,8.60
2019-03-13T00:57:56.929Z,8.50
2019-03-13T01:00:55.682Z,8.30
2019-03-13T01:03:43.532Z,8.10
2019-03-13T01:06:19.624Z,8.00
2019-03-13T01:08:50.286Z,7.90
2019-03-13T01:11:20.908Z,7.90
2019-03-13T01:13:51.435Z,7.80
2019-03-13T01:16:22.073Z,7.70
2019-03-13T01:18:53.758Z,7.70
2019-03-13T01:21:24.304Z,7.60
2019-03-13T01:23:54.825Z,7.50
2019-03-13T01:26:25.383Z,7.50
2019-03-13T01:28:56.069Z,7.60
2019-03-13T01:31:54.473Z,7.50
2019-03-13T01:34:38.305Z,7.40
2019-03-13T01:37:08.921Z,7.40
2019-03-13T01:39:39.598Z,7.40
2019-03-13T01:42:10.144Z,7.30
2019-03-13T01:44:40.971Z,7.30
2019-03-13T01:47:11.597Z,7.20
2019-03-13T01:49:42.193Z,7.20
2019-03-13T01:52:12.731Z,7.20
2019-03-13T01:54:43.334Z,7.10
2019-03-13T01:57:13.945Z,7.10
2019-03-13T01:59:44.469Z,7.10
2019-03-13T02:02:15.021Z,7.00
2019-03-13T02:04:45.699Z,7.00
2019-03-13T02:07:16.329Z,7.00
2019-03-13T02:09:46.937Z,7.00
2019-03-13T02:12:17.549Z,6.90
2019-03-13T02:14:48.065Z,6.90
2019-03-13T02:17:18.768Z,6.90
2019-03-13T02:19:49.964Z,6.80
2019-03-13T02:22:20.612Z,6.80
2019-03-13T02:24:54.077Z,6.70
2019-03-13T02:27:23.534Z,6.70
2019-03-13T02:29:54.061Z,6.60
2019-03-13T02:32:24.636Z,6.60
2019-03-13T02:34:55.211Z,6.50
2019-03-13T02:37:25.906Z,6.50
2019-03-13T02:39:56.539Z,6.40
2019-03-13T02:42:27.178Z,5.80
2019-03-13T02:44:57.706Z,6.20
2019-03-13T02:47:28.333Z,6.10
2019-03-13T02:49:58.950Z,6.10
2019-03-13T02:52:29.667Z,6.20
2019-03-13T02:55:00.505Z,6.10
2019-03-13T02:57:31.048Z,6.00
2019-03-13T03:00:02.701Z,6.10
2019-03-13T03:02:44.339Z,6.10
2019-03-13T03:05:15.015Z,6.10
2019-03-13T03:07:46.330Z,6.00
2019-03-13T03:10:16.992Z,5.90
2019-03-13T03:12:47.611Z,5.90
2019-03-13T03:15:18.825Z,6.10
2019-03-13T03:17:49.530Z,6.00
2019-03-13T03:20:20.997Z,6.00
2019-03-13T03:22:51.554Z,5.90
2019-03-13T03:25:22.096Z,5.80
2019-03-13T03:27:52.816Z,5.70
2019-03-13T03:30:23.609Z,5.60
2019-03-13T03:32:54.396Z,5.60
2019-03-13T03:35:25.054Z,5.40
2019-03-13T03:37:55.671Z,5.50
2019-03-13T03:40:26.361Z,5.50
2019-03-13T03:42:56.964Z,5.40
2019-03-13T03:45:27.639Z,5.50
2019-03-13T03:47:58.174Z,5.40
2019-03-13T03:50:28.850Z,5.40
2019-03-13T03:52:59.396Z,5.50
2019-03-13T03:55:29.992Z,5.50
2019-03-13T03:58:00.688Z,5.50
2019-03-13T04:00:31.294Z,5.50
2019-03-13T04:03:02.272Z,5.50
2019-03-13T04:05:32.887Z,5.70
2019-03-13T04:08:03.608Z,5.70
2019-03-13T04:10:34.180Z,5.70
2019-03-13T04:13:05.693Z,5.80
2019-03-13T04:15:37.487Z,5.90
2019-03-13T04:18:08.172Z,5.90
2019-03-13T04:20:38.891Z,5.90
2019-03-13T04:23:09.542Z,5.90
2019-03-13T04:25:40.244Z,5.80
2019-03-13T04:28:10.865Z,5.80
2019-03-13T04:30:41.497Z,5.80
2019-03-13T04:33:12.062Z,5.70
2019-03-13T04:35:42.665Z,5.60
2019-03-13T04:38:13.323Z,5.60
2019-03-13T04:40:44.014Z,5.60
2019-03-13T04:43:14.685Z,5.60
2019-03-13T04:45:45.358Z,5.60
2019-03-13T04:48:15.962Z,5.60
2019-03-13T04:50:46.514Z,5.60
2019-03-13T04:53:17.174Z,5.50
2019-03-13T04:55:47.863Z,5.50
2019-03-13T04:58:18.448Z,5.40
2019-03-13T05:00:48.987Z,5.40
2019-03-13T05:03:19.598Z,5.40
2019-03-13T05:05:58.577Z,5.40
2019-03-13T05:09:01.744Z,5.30
2019-03-13T05:11:33.886Z,5.40
2019-03-13T05:14:04.509Z,5.40
2019-03-13T05:16:35.041Z,5.40
2019-03-13T05:19:06.918Z,5.40
2019-03-13T05:21:37.513Z,5.40
2019-03-13T05:24:08.135Z,5.40
2019-03-13T05:26:39.834Z,5.30
2019-03-13T05:29:10.461Z,5.30
2019-03-13T05:31:41.125Z,5.30
2019-03-13T05:34:11.665Z,5.30
2019-03-13T05:36:42.183Z,5.30
2019-03-13T05:39:12.813Z,5.30
2019-03-13T05:41:43.350Z,5.30
2019-03-13T05:44:13.969Z,5.30
2019-03-13T05:46:44.508Z,5.20
2019-03-13T05:49:15.101Z,5.30
2019-03-13T05:51:45.722Z,5.20
2019-03-13T05:54:16.324Z,5.20
2019-03-13T05:56:48.138Z,5.30
2019-03-13T05:59:18.741Z,5.10
2019-03-13T06:01:49.367Z,5.00
2019-03-13T06:04:20.049Z,4.90
2019-03-13T06:06:50.737Z,4.90
2019-03-13T06:09:21.262Z,4.90
2019-03-13T06:11:51.885Z,4.90
2019-03-13T06:14:22.415Z,4.90
2019-03-13T06:16:53.028Z,4.90
2019-03-13T06:19:23.553Z,4.90
2019-03-13T06:21:55.334Z,4.90
2019-03-13T06:24:25.958Z,4.90
2019-03-13T06:26:56.590Z,4.90
2019-03-13T06:29:27.269Z,4.80
2019-03-13T06:31:58.879Z,4.90
2019-03-13T06:34:29.486Z,4.90
2019-03-13T06:37:00.102Z,5.00
2019-03-13T06:39:31.995Z,5.10
2019-03-13T06:42:02.820Z,5.20
2019-03-13T06:44:33.409Z,5.40
2019-03-13T06:47:04.022Z,5.60
2019-03-13T06:49:34.542Z,5.90
2019-03-13T06:52:05.156Z,6.10
2019-03-13T06:54:35.787Z,5.90
2019-03-13T06:57:06.393Z,6.10
2019-03-13T06:59:54.543Z,6.20
2019-03-13T07:02:35.745Z,6.50
2019-03-13T07:05:23.587Z,6.90
2019-03-13T07:08:16.279Z,6.90
2019-03-13T07:11:04.880Z,7.20
2019-03-13T07:14:03.352Z,7.00
2019-03-13T07:16:52.131Z,6.90
2019-03-13T07:19:32.977Z,6.80
2019-03-13T07:22:13.047Z,6.90
2019-03-13T07:24:55.873Z,6.80
2019-03-13T07:27:57.874Z,7.30
2019-03-13T07:30:50.559Z,7.40
2019-03-13T07:33:38.861Z,7.90
2019-03-13T07:36:17.543Z,7.60
2019-03-13T07:39:07.192Z,8.00
2019-03-13T07:41:58.430Z,7.50
2019-03-13T07:44:51.199Z,7.60
2019-03-13T07:47:49.973Z,7.90
2019-03-13T07:50:38.172Z,8.10
2019-03-13T07:53:42.765Z,8.80
2019-03-13T07:56:35.608Z,8.70
2019-03-13T07:59:34.515Z,8.00
2019-03-13T08:02:19.661Z,7.80
2019-03-13T08:05:02.963Z,8.60
2019-03-13T08:07:51.270Z,8.70
2019-03-13T08:10:43.938Z,8.90
2019-03-13T08:13:42.460Z,8.60
2019-03-13T08:16:20.677Z,9.30
2019-03-13T08:19:07.692Z,8.80
2019-03-13T08:22:00.835Z,9.80
2019-03-13T08:24:40.671Z,9.30
2019-03-13T08:27:20.234Z,10.00
2019-03-13T08:30:20.505Z,9.40
2019-03-13T08:33:08.166Z,9.80
2019-03-13T08:36:12.929Z,10.60
2019-03-13T08:39:14.633Z,9.60
2019-03-13T08:41:58.550Z,9.80
2019-03-13T08:44:54.721Z,9.10
2019-03-13T08:47:44.309Z,9.10
2019-03-13T08:50:22.101Z,9.00
2019-03-13T08:53:05.863Z,8.90
2019-03-13T08:55:52.769Z,8.30
2019-03-13T08:58:45.211Z,8.00
2019-03-13T09:01:33.738Z,8.40
2019-03-13T09:04:16.487Z,8.40
2019-03-13T09:06:58.244Z,8.30
2019-03-13T09:09:59.870Z,8.10
2019-03-13T09:12:49.573Z,8.20
2019-03-13T09:15:31.275Z,8.30
2019-03-13T09:18:22.090Z,8.90
2019-03-13T09:21:03.967Z,8.90
2019-03-13T09:23:59.538Z,9.10
2019-03-13T09:26:42.096Z,8.80
2019-03-13T09:29:34.710Z,9.30
2019-03-13T09:32:20.862Z,10.00
2019-03-13T09:35:16.666Z,10.70
2019-03-13T09:38:09.321Z,9.90
2019-03-13T09:40:46.285Z,10.10
2019-03-13T09:43:36.894Z,9.80
2019-03-13T09:46:25.509Z,9.30
2019-03-13T09:49:14.811Z,9.90
2019-03-13T09:52:07.351Z,11.20
2019-03-13T09:55:04.619Z,11.10
2019-03-13T09:58:03.457Z,12.40
2019-03-13T10:00:44.262Z,11.10
2019-03-13T10:03:38.068Z,10.30
2019-03-13T10:06:26.456Z,10.80
2019-03-13T10:09:08.350Z,9.80
2019-03-13T10:11:48.013Z,9.40
2019-03-13T10:14:33.320Z,9.30
2019-03-13T10:17:19.074Z,9.10
2019-03-13T10:20:08.975Z,8.80
2019-03-13T10:22:56.506Z,9.40
2019-03-13T10:25:38.709Z,9.60
2019-03-13T10:28:27.351Z,10.30
2019-03-13T10:31:15.565Z,11.00
2019-03-13T10:33:51.669Z,9.90
2019-03-13T10:36:36.509Z,9.20
2019-03-13T10:39:27.030Z,9.50
2019-03-13T10:42:20.467Z,9.60
2019-03-13T10:45:10.126Z,9.90
2019-03-13T10:47:48.050Z,11.50
2019-03-13T10:50:27.621Z,10.50
2019-03-13T10:53:12.074Z,11.10
2019-03-13T10:55:55.462Z,11.60
2019-03-13T10:58:45.786Z,11.20
2019-03-13T11:01:47.574Z,10.70
2019-03-13T11:04:39.931Z,10.50
2019-03-13T11:07:28.882Z,10.50
2019-03-13T11:10:18.660Z,10.10
2019-03-13T11:12:58.328Z,10.00
2019-03-13T11:15:53.802Z,10.40
2019-03-13T11:18:46.318Z,10.80
2019-03-13T11:21:44.287Z,9.80
2019-03-13T11:24:21.273Z,9.60
2019-03-13T11:26:57.514Z,9.80
2019-03-13T11:29:43.325Z,9.60
2019-03-13T11:32:22.947Z,9.50
2019-03-13T11:35:04.559Z,9.30
2019-03-13T11:37:50.928Z,9.10
2019-03-13T11:40:40.589Z,8.90
2019-03-13T11:43:22.298Z,8.80
2019-03-13T11:46:11.924Z,8.80
2019-03-13T11:49:04.361Z,8.70
2019-03-13T11:51:43.140Z,8.70
2019-03-13T11:54:25.375Z,8.70
2019-03-13T11:57:20.789Z,8.60
2019-03-13T12:00:02.163Z,8.60
2019-03-13T12:03:08.353Z,8.50
2019-03-13T12:05:58.005Z,8.40
2019-03-13T12:08:46.221Z,8.50
2019-03-13T12:11:41.666Z,8.60
2019-03-13T12:14:27.754Z,8.70
2019-03-13T12:17:15.472Z,8.80
2019-03-13T12:20:11.333Z,8.70
2019-03-13T12:23:00.966Z,8.70
2019-03-13T12:25:50.566Z,8.90
2019-03-13T12:28:46.221Z,9.20
2019-03-13T12:31:39.964Z,9.20
2019-03-13T12:34:29.565Z,9.30
2019-03-13T12:37:19.223Z,9.50
2019-03-13T12:40:11.113Z,9.70
2019-03-13T12:43:03.665Z,10.60
2019-03-13T12:45:52.295Z,10.40
2019-03-13T12:48:34.085Z,9.90
2019-03-13T12:51:23.702Z,9.60
2019-03-13T12:54:09.237Z,9.30
2019-03-13T12:56:48.813Z,9.60
2019-03-13T12:59:38.394Z,9.80
2019-03-13T13:02:34.293Z,9.30
2019-03-13T13:05:19.994Z,10.10
2019-03-13T13:08:12.458Z,10.30
2019-03-13T13:10:55.555Z,10.20
2019-03-13T13:13:37.092Z,10.20
2019-03-13T13:16:25.073Z,10.10
2019-03-13T13:18:55.816Z,9.50
2019-03-13T13:21:27.642Z,9.40
2019-03-13T13:24:00.413Z,9.30
2019-03-13T13:26:31.105Z,8.70
2019-03-13T13:29:01.822Z,8.50
2019-03-13T13:31:33.673Z,7.70
2019-03-13T13:34:04.270Z,7.30
2019-03-13T13:36:34.901Z,7.30
2019-03-13T13:39:07.957Z,7.10
2019-03-13T13:41:40.103Z,7.10
2019-03-13T13:44:10.703Z,6.60
2019-03-13T13:46:44.298Z,6.60
2019-03-13T13:49:14.063Z,7.00
2019-03-13T13:51:44.673Z,7.20
2019-03-13T13:54:15.272Z,6.90
2019-03-13T13:56:45.902Z,7.10
2019-03-13T13:59:16.499Z,7.60
2019-03-13T14:01:47.114Z,7.80
2019-03-13T14:04:17.634Z,7.80
2019-03-13T14:06:48.194Z,8.30
2019-03-13T14:09:18.793Z,8.10
2019-03-13T14:11:49.414Z,8.50
2019-03-13T14:14:19.938Z,8.20
2019-03-13T14:16:50.556Z,8.40
2019-03-13T14:19:21.162Z,8.10
2019-03-13T14:21:51.714Z,8.10
2019-03-13T14:24:22.249Z,8.20
2019-03-13T14:26:52.809Z,8.10
2019-03-13T14:29:23.335Z,7.90
2019-03-13T14:31:53.876Z,7.50
2019-03-13T14:34:24.481Z,7.50
2019-03-13T14:36:55.097Z,7.70
2019-03-13T14:39:25.705Z,7.80
2019-03-13T14:41:56.254Z,7.90
2019-03-13T14:44:26.854Z,8.00
2019-03-13T14:46:57.406Z,8.20
2019-03-13T14:49:28.011Z,8.30
2019-03-13T14:51:58.554Z,8.30
2019-03-13T14:54:29.154Z,8.50
2019-03-13T14:56:59.762Z,8.50
2019-03-13T14:59:30.277Z,8.50
2019-03-13T15:02:00.905Z,8.70
2019-03-13T15:04:31.508Z,8.60
2019-03-13T15:07:02.140Z,8.70
2019-03-13T15:09:32.750Z,8.70
2019-03-13T15:12:03.269Z,8.70
2019-03-13T15:14:33.814Z,8.70
2019-03-13T15:17:04.446Z,8.70
2019-03-13T15:19:35.134Z,8.70
2019-03-13T15:22:05.657Z,8.70
2019-03-13T15:24:36.266Z,8.70
2019-03-13T15:27:06.881Z,8.70
2019-03-13T15:29:37.441Z,8.90
2019-03-13T15:32:07.954Z,9.00
2019-03-13T15:34:41.366Z,8.90
2019-03-13T15:37:10.817Z,8.90
2019-03-13T15:39:41.373Z,9.00
2019-03-13T15:42:13.038Z,9.00
2019-03-13T15:44:44.624Z,9.00
2019-03-13T15:47:15.137Z,9.00
2019-03-13T15:49:45.690Z,8.90
2019-03-13T15:52:16.275Z,9.00
2019-03-13T15:54:46.957Z,8.90
2019-03-13T15:57:18.584Z,8.80
2019-03-13T15:59:49.361Z,8.80
2019-03-13T16:02:19.889Z,8.70
2019-03-13T16:04:50.514Z,8.80
2019-03-13T16:07:21.046Z,8.90
2019-03-13T16:09:51.604Z,9.00
2019-03-13T16:12:22.217Z,9.10
2019-03-13T16:14:52.751Z,9.10
2019-03-13T16:17:24.494Z,9.00
2019-03-13T16:19:55.041Z,9.00
2019-03-13T16:22:25.558Z,9.00
2019-03-13T16:24:56.106Z,8.80
2019-03-13T16:27:26.649Z,8.70
2019-03-13T16:29:57.218Z,8.60
2019-03-13T16:32:27.761Z,8.60
2019-03-13T16:34:58.297Z,8.50
2019-03-13T16:37:28.820Z,8.50
2019-03-13T16:40:00.370Z,8.50
2019-03-13T16:42:30.984Z,8.50
2019-03-13T16:45:01.594Z,8.40
2019-03-13T16:47:33.550Z,8.40
2019-03-13T16:50:04.921Z,8.30
2019-03-13T16:52:35.513Z,8.30
2019-03-13T16:55:07.712Z,8.30
2019-03-13T16:57:38.225Z,8.20
2019-03-13T17:00:12.329Z,8.30
2019-03-13T17:02:43.230Z,8.30
2019-03-13T17:05:13.639Z,8.20
2019-03-13T17:07:44.270Z,8.10
2019-03-13T17:10:16.013Z,8.10
2019-03-13T17:12:46.750Z,8.00
2019-03-13T17:15:18.907Z,8.00
2019-03-13T17:17:49.701Z,8.00
2019-03-13T17:20:22.216Z,8.00
2019-03-13T17:22:53.711Z,8.00
2019-03-13T17:25:24.354Z,7.90
2019-03-13T17:27:54.950Z,7.80
2019-03-13T17:30:26.078Z,7.80
2019-03-13T17:32:56.675Z,7.80
2019-03-13T17:35:27.302Z,7.80
2019-03-13T17:37:57.911Z,7.80
2019-03-13T17:40:28.546Z,7.70
2019-03-13T17:42:59.139Z,7.70
2019-03-13T17:45:29.780Z,7.70
2019-03-13T17:48:00.300Z,7.70
2019-03-13T17:50:30.914Z,7.70
2019-03-13T17:53:01.433Z,7.60
2019-03-13T17:55:32.046Z,7.60
2019-03-13T17:58:02.649Z,7.60
2019-03-13T18:00:42.710Z,7.60
2019-03-13T18:03:13.321Z,7.60
2019-03-13T18:05:43.885Z,7.60
2019-03-13T18:08:14.482Z,7.60
2019-03-13T18:10:45.105Z,7.60
2019-03-13T18:13:15.702Z,7.50
2019-03-13T18:15:46.258Z,7.40
2019-03-13T18:18:16.841Z,7.40
2019-03-13T18:20:47.389Z,7.30
2019-03-13T18:23:17.990Z,7.30
2019-03-13T18:25:48.719Z,7.20
2019-03-13T18:28:19.316Z,7.20
2019-03-13T18:30:49.859Z,7.20
2019-03-13T18:33:20.382Z,7.20
2019-03-13T18:35:51.070Z,7.20
2019-03-13T18:38:21.665Z,7.20
2019-03-13T18:40:52.290Z,7.20
2019-03-13T18:43:22.901Z,7.20
2019-03-13T18:45:53.437Z,7.20
2019-03-13T18:48:24.043Z,7.20
2019-03-13T18:50:54.654Z,7.20
2019-03-13T18:53:25.197Z,7.20
2019-03-13T18:55:55.763Z,7.20
2019-03-13T18:58:26.427Z,7.20
2019-03-13T19:00:58.290Z,7.20
2019-03-13T19:03:28.978Z,7.10
2019-03-13T19:05:59.594Z,7.10
2019-03-13T19:08:30.184Z,7.00
2019-03-13T19:11:01.958Z,7.00
2019-03-13T19:13:32.554Z,6.90
2019-03-13T19:16:03.169Z,7.00
2019-03-13T19:18:33.769Z,6.90
2019-03-13T19:21:04.315Z,6.90
2019-03-13T19:23:34.841Z,6.90
2019-03-13T19:26:05.766Z,6.80
2019-03-13T19:28:36.285Z,6.80
2019-03-13T19:31:06.840Z,6.70
2019-03-13T19:33:37.485Z,6.60
2019-03-13T19:36:08.029Z,6.60
2019-03-13T19:38:44.185Z,6.50
2019-03-13T19:41:14.874Z,6.50
2019-03-13T19:43:45.474Z,6.50
2019-03-13T19:46:16.049Z,6.40
2019-03-13T19:48:48.809Z,6.40
2019-03-13T19:51:20.508Z,6.40
2019-03-13T19:53:51.109Z,6.40
2019-03-13T19:56:21.700Z,6.40
2019-03-13T19:58:52.358Z,6.30
2019-03-13T20:01:24.596Z,6.30
2019-03-13T20:03:55.732Z,6.30
2019-03-13T20:06:26.513Z,6.30
2019-03-13T20:08:57.132Z,6.20
2019-03-13T20:11:27.849Z,6.20
2019-03-13T20:13:58.437Z,6.20
2019-03-13T20:16:29.055Z,6.20
2019-03-13T20:18:59.650Z,6.10
2019-03-13T20:21:31.380Z,6.20
2019-03-13T20:24:02.267Z,6.10
2019-03-13T20:26:32.945Z,6.10
2019-03-13T20:29:03.544Z,6.20
2019-03-13T20:31:34.125Z,6.10
2019-03-13T20:34:04.734Z,6.10
2019-03-13T20:36:35.365Z,6.10
2019-03-13T20:39:07.023Z,6.10
2019-03-13T20:41:38.872Z,6.10
2019-03-13T20:44:09.473Z,6.10
2019-03-13T20:46:40.097Z,6.10
2019-03-13T20:49:10.775Z,6.20
2019-03-13T20:51:41.418Z,6.10
2019-03-13T20:54:12.006Z,6.10
2019-03-13T20:56:42.616Z,6.10
2019-03-13T20:59:13.186Z,6.00
2019-03-13T21:01:43.718Z,6.00
2019-03-13T21:04:14.228Z,6.00
2019-03-13T21:06:44.838Z,6.00
2019-03-13T21:09:15.532Z,6.00
2019-03-13T21:11:46.201Z,6.00
2019-03-13T21:14:16.793Z,6.00
2019-03-13T21:16:47.330Z,5.90
2019-03-13T21:19:17.858Z,5.80
2019-03-13T21:21:48.532Z,5.90
2019-03-13T21:24:19.177Z,5.80
2019-03-13T21:26:49.797Z,5.60
2019-03-13T21:29:20.310Z,5.50
2019-03-13T21:31:52.241Z,5.40
2019-03-13T21:34:22.820Z,5.40
2019-03-13T21:36:53.776Z,5.30
2019-03-13T21:39:24.292Z,5.20
2019-03-13T21:41:54.914Z,5.10
2019-03-13T21:44:25.522Z,5.10
2019-03-13T21:46:56.074Z,5.00
2019-03-13T21:49:26.675Z,5.00
2019-03-13T21:51:57.357Z,5.00
2019-03-13T21:54:27.913Z,4.90
2019-03-13T21:56:58.523Z,4.90
2019-03-13T21:59:29.118Z,4.80
2019-03-13T22:01:59.800Z,4.80
2019-03-13T22:04:30.425Z,4.70
2019-03-13T22:07:01.042Z,4.70
2019-03-13T22:09:31.647Z,4.80
2019-03-13T22:12:02.281Z,4.80
2019-03-13T22:14:32.944Z,4.80
2019-03-13T22:17:03.574Z,4.80
2019-03-13T22:19:34.157Z,4.80
2019-03-13T22:22:04.854Z,4.80
2019-03-13T22:24:35.373Z,4.80
2019-03-13T22:27:05.940Z,4.80
2019-03-13T22:29:36.473Z,4.80
2019-03-13T22:32:07.110Z,4.80
2019-03-13T22:34:37.633Z,4.80
2019-03-13T22:37:08.273Z,4.80
2019-03-13T22:39:38.918Z,4.80
2019-03-13T22:42:09.558Z,4.90
2019-03-13T22:44:40.165Z,4.90
2019-03-13T22:47:10.801Z,4.90
2019-03-13T22:49:41.406Z,4.90
2019-03-13T22:52:11.953Z,4.90
2019-03-13T22:54:42.481Z,5.00
2019-03-13T22:57:13.017Z,5.00
2019-03-13T22:59:43.620Z,6.20
2019-03-13T23:02:15.434Z,5.80
2019-03-13T23:04:46.093Z,5.80
2019-03-13T23:07:16.717Z,6.00
2019-03-13T23:09:47.245Z,5.40
2019-03-13T23:12:17.871Z,5.30
2019-03-13T23:14:49.651Z,5.30
2019-03-13T23:17:20.270Z,5.40
2019-03-13T23:19:50.879Z,5.40
2019-03-13T23:22:21.526Z,5.40
2019-03-13T23:24:52.129Z,5.50
2019-03-13T23:27:22.842Z,5.40
2019-03-13T23:29:53.461Z,5.40
2019-03-13T23:32:24.020Z,5.40
2019-03-13T23:34:54.634Z,5.40
2019-03-13T23:37:25.225Z,5.40
2019-03-13T23:39:55.845Z,5.40
2019-03-13T23:42:26.479Z,5.50
2019-03-13T23:44:57.106Z,5.50
2019-03-13T23:47:27.706Z,5.50
2019-03-13T23:49:58.251Z,5.50
2019-03-13T23:52:29.944Z,5.50
2019-03-13T23:55:00.573Z,5.50
2019-03-13T23:57:32.095Z,5.50
